Velkommen til

Stord Flyklubb

Om oss

Historien til Stord Flyklubb

Klubbens aner strekker seg tilbake til 1969 med sjøfly. Siden har vi sett vanlige motorfly og glidefly, men det er sportsfly som er hovedfokuset i dag

"Me har gjort det som menneskja har drøymd om frå gamalt av, det dei misunner fuglane, det vil seia, me har floge"

Salman Rushdie

Bli pilot

Alle kan lære å fly!

Ta en prøvetur hos oss og se hvor moro det er! Prøveturen gir deg en mulighet til å se om dette er noe du har lyst til å gå videre med.

Teorien tas av de fleste som hjemmeundervisning. Nytt læremateriell gjør opplæringen både enklere og mer strømlinjeformet.

Praksis kan påbegynnes mens man tar teorien, men teorien må være bestått før man kan fly solo. 

METAR Haugesund
ENHD 301450Z 14003KT 9999 -RA FEW010 BKN025 07/06 Q1006 ENHD 301420Z 17003KT 9999 -RA BKN023 07/06 Q1006 ENHD 301350Z 22006KT 9999 -RA FEW011 SCT015 BKN024 07/06 Q1006 ENHD 301320Z AUTO 23009KT 9999 -RA ///023/// 07/06 Q1006 ENHD 301250Z AUTO 23009KT 9999 -RA FEW010/// BKN024/// BKN030/// 08/06 Q1006 ENHD 301220Z AUTO 22012KT 9999 -RA FEW009/// BKN024/// OVC032/// 08/06 Q1007 TAF ENHD 301400Z 3015/3021 VRB06KT 9000 -RA SCT010 BKN022 TEMPO 3015/3018 4000 SHRA BR BKN008 SCT015CB BECMG 3018/3020 36020KT
METAR Flesland
ENBR 301450Z VRB02G14KT 9999 RA FEW005 SCT013 BKN018 06/05 Q1006 TEMPO 4000 RA BR BKN008 BECMG 34010KT RMK WIND 1200FT 34007KT ENBR 301420Z 14003KT 110V200 9999 -RA FEW005 SCT012 BKN025 06/06 Q1006 TEMPO 4000 RA BR BKN008 BECMG 34010KT RMK WIND 1200FT 23006KT ENBR 301350Z 16008KT 9999 -RA FEW006 SCT009 BKN021 06/06 Q1006 TEMPO 4000 RA BR BKN008 RMK WIND 1200FT 18010KT ENBR 301320Z 19007KT 8000 RA FEW005 SCT008 BKN021 07/06 Q1006 TEMPO 4000 RA BR BKN008 RMK WIND 1200FT 19012KT ENBR 301250Z 18009KT 9000 RA SCT007 SCT012 BKN024 07/05 Q1006 TEMPO 4000 RA BR BKN008 RMK WIND 1200FT 22017KT ENBR 301220Z 19011KT 9999 -RA SCT008 SCT015 BKN023 07/06 Q1006 TEMPO 4000 SHRA BR BKN008 RMK WIND 1200FT 21015KT TAF ENBR 3012/0112 19015KT 9000 -RA SCT010 BKN015 TEMPO 3012/3016 4000 SHRA BR BKN008 SCT015CB BECMG 3013/3015 VRB06KT BECMG 3018/3021 36012KT CAVOK